Roanoke Regional Woodrum Field
KROA : now visible

Airfield :











YOU CAN JOIN US ON...

 
LOGIN :

Register | Disclaimer

   EN    FR    IT 

 









Legend :    VFR   Marginal VFR   IFR   Intensive IFR   Very Intensive IFR
Visi :
Ceiling :
>= 8 km
>= 3000ft
5 to 8 km
1000 to 3000 ft
1500m to 5 km
500 to 1000 ft
800 to 1500m
200 to 500 ft
< 800m
< 200 ft
Symbols :   Thunderstorms  Fog  Heavy snow  Heavy precipitations  Wind > 20 kt







- Airport Elevation : 1175 ft
- IATA code : ROA


KROA - Roanoke Regional Woodrum Field

CURRENT METAR :
  • 201307Z 13009KT 7SM -FZRA FEW007 OVC015 00/M02 A3040 RMK AO2 P0000 T00001017

EXPIRED METARs :
  • 201254Z 12008KT 2SM -FZRA BR SCT007 BKN010 OVC020 00/M01 A3041 RMK AO2 SFC VIS 5 FZDZE50FZRAB50 SLP307 P0003 T00001011
  • 201230Z 12008KT 2SM -FZDZ BR OVC004 00/M01 A3040 RMK AO2 P0002 T00001011
  • 201154Z 12006KT 3SM -FZDZ BR OVC004 00/M01 A3040 RMK AO2 SFC VIS 5 FZDZB27PLE27 SLP303 4/003 P0001 60050 70061 T00001011 10006 20000 56006
  • 201133Z 11005KT 4SM -FZDZ BR BKN004 OVC008 00/M01 A3041 RMK AO2 FZDZB27PLE27 P0001 T00001011
  • 201054Z 12009KT 3SM -PL BR BKN006 BKN010 OVC015 00/M01 A3041 RMK AO2 SLP307 P0001 T00001011
  • 201010Z 14009KT 4SM -PL BR OVC005 00/M01 A3041 RMK AO2 P0000 T00001011

TAF KROA
Valid from the 20 at 12:00 until the 21 at 12:00 UTC


201150Z 2012/2112 11005KT 4SM -FZDZ BR OVC004
FM201500 13005KT 1 1/2SM -FZDZ BR OVC007
FM202100 VRB03KT 3SM -DZ BR OVC003
FM210400 19003KT 3SM BR OVC006
FM210600 21004KT 6SM BR OVC009
FM211100 VRB03KT 6SM BR OVC025
KZDC FIR / North America



MET'MAP, your aeronautical weather chart ! - Copyright ORBIFLY December 2007 - Disclaimer

ORBIFLY MET'MAP TEAM :

Programming & Development : Alexandra Zaïnal
Concept & Development : Baudouin d'Aumeries
Co-Development & Prog : Marc-Olivier Méhu
Technical & hardware support : Manuel Goepfert

Contact : metmap@orbifly.com




SOURCES & CREDITS :

   NOAA       Earth
Advisory